createdAt,value
2018-12-18T00:01:04.471Z,43.20
2018-12-18T00:03:30.705Z,43.30
2018-12-18T00:05:56.936Z,43.40
2018-12-18T00:08:23.125Z,43.40
2018-12-18T00:10:49.381Z,43.50
2018-12-18T00:13:15.610Z,43.50
2018-12-18T00:15:41.836Z,43.40
2018-12-18T00:18:08.131Z,43.40
2018-12-18T00:20:34.490Z,43.40
2018-12-18T00:23:00.690Z,43.50
2018-12-18T00:25:26.879Z,43.50
2018-12-18T00:27:54.773Z,43.60
2018-12-18T00:30:21.063Z,43.50
2018-12-18T00:32:47.277Z,43.50
2018-12-18T00:35:13.499Z,43.50
2018-12-18T00:37:40.772Z,43.50
2018-12-18T00:40:06.968Z,43.60
2018-12-18T00:42:33.209Z,43.50
2018-12-18T00:44:59.495Z,43.40
2018-12-18T00:47:25.711Z,43.50
2018-12-18T00:49:52.108Z,43.40
2018-12-18T00:52:20.589Z,43.30
2018-12-18T00:54:46.807Z,43.20
2018-12-18T00:57:14.451Z,43.30
2018-12-18T00:59:40.703Z,43.40
2018-12-18T01:02:06.932Z,43.40
2018-12-18T01:04:33.180Z,43.50
2018-12-18T01:06:59.628Z,43.50
2018-12-18T01:09:25.819Z,43.40
2018-12-18T01:11:52.047Z,43.30
2018-12-18T01:14:18.327Z,43.20
2018-12-18T01:16:44.724Z,43.30
2018-12-18T01:19:10.896Z,43.30
2018-12-18T01:21:37.174Z,43.20
2018-12-18T01:24:03.396Z,43.30
2018-12-18T01:26:29.671Z,43.20
2018-12-18T01:28:56.047Z,43.20
2018-12-18T01:31:22.515Z,43.20
2018-12-18T01:33:48.943Z,43.20
2018-12-18T01:36:15.168Z,43.30
2018-12-18T01:38:41.388Z,43.40
2018-12-18T01:41:07.659Z,43.40
2018-12-18T01:43:33.893Z,43.30
2018-12-18T01:46:00.260Z,43.50
2018-12-18T01:48:26.488Z,43.50
2018-12-18T01:50:52.723Z,43.50
2018-12-18T01:53:18.948Z,43.50
2018-12-18T01:55:45.404Z,43.50
2018-12-18T01:58:12.589Z,43.40
2018-12-18T02:00:38.866Z,43.40
2018-12-18T02:03:05.110Z,43.40
2018-12-18T02:05:31.335Z,43.50
2018-12-18T02:07:57.512Z,43.40
2018-12-18T02:10:24.594Z,43.40
2018-12-18T02:12:51.334Z,43.40
2018-12-18T02:15:17.663Z,43.40
2018-12-18T02:17:43.910Z,43.30
2018-12-18T02:20:11.779Z,43.20
2018-12-18T02:22:38.799Z,43.30
2018-12-18T02:25:05.027Z,43.30
2018-12-18T02:27:32.932Z,43.20
2018-12-18T02:29:59.136Z,43.20
2018-12-18T02:32:25.370Z,43.10
2018-12-18T02:34:51.555Z,43.10
2018-12-18T02:37:17.749Z,43.20
2018-12-18T02:39:44.054Z,43.10
2018-12-18T02:42:11.307Z,43.00
2018-12-18T02:44:37.537Z,43.00
2018-12-18T02:47:03.753Z,43.00
2018-12-18T02:49:29.982Z,43.00
2018-12-18T02:51:56.212Z,43.00
2018-12-18T02:54:22.409Z,42.80
2018-12-18T02:56:48.694Z,42.80
2018-12-18T02:59:14.891Z,42.70
2018-12-18T03:01:41.127Z,42.60
2018-12-18T03:04:08.094Z,42.60
2018-12-18T03:06:35.246Z,42.60
2018-12-18T03:09:01.904Z,42.50
2018-12-18T03:11:28.129Z,42.50
2018-12-18T03:13:54.519Z,42.50
2018-12-18T03:16:20.753Z,42.50
2018-12-18T03:18:46.969Z,42.50
2018-12-18T03:21:13.195Z,42.50
2018-12-18T03:23:39.882Z,42.60
2018-12-18T03:26:06.288Z,42.50
2018-12-18T03:28:32.466Z,42.40
2018-12-18T03:30:58.723Z,42.50
2018-12-18T03:33:24.956Z,42.40
2018-12-18T03:35:51.196Z,42.40
2018-12-18T03:38:17.371Z,42.40
2018-12-18T03:40:43.647Z,42.40
2018-12-18T03:43:09.881Z,42.30
2018-12-18T03:45:36.085Z,42.30
2018-12-18T03:48:02.288Z,42.30
2018-12-18T03:50:28.545Z,42.30
2018-12-18T03:52:54.759Z,42.40
2018-12-18T03:55:21.000Z,42.30
2018-12-18T03:57:47.280Z,42.40
2018-12-18T04:00:13.671Z,42.40
2018-12-18T04:02:39.842Z,42.40
2018-12-18T04:05:06.035Z,42.30
2018-12-18T04:07:32.335Z,42.30
2018-12-18T04:09:58.576Z,42.20
2018-12-18T04:12:24.802Z,42.20
2018-12-18T04:14:51.057Z,42.20
2018-12-18T04:17:18.088Z,42.20
2018-12-18T04:19:44.323Z,42.10
2018-12-18T04:22:10.524Z,42.20
2018-12-18T04:24:36.767Z,42.10
2018-12-18T04:27:02.983Z,42.10
2018-12-18T04:29:29.232Z,42.00
2018-12-18T04:31:56.930Z,42.10
2018-12-18T04:34:23.321Z,42.10
2018-12-18T04:36:49.600Z,42.10
2018-12-18T04:39:15.780Z,42.00
2018-12-18T04:41:42.004Z,42.00
2018-12-18T04:44:08.223Z,41.90
2018-12-18T04:46:34.414Z,41.90
2018-12-18T04:49:00.679Z,41.80
2018-12-18T04:51:26.932Z,41.70
2018-12-18T04:53:53.143Z,41.70
2018-12-18T04:56:19.373Z,41.70
2018-12-18T04:58:46.271Z,41.60
2018-12-18T05:01:12.639Z,41.50
2018-12-18T05:03:38.867Z,41.50
2018-12-18T05:06:05.092Z,41.50
2018-12-18T05:08:31.315Z,41.50
2018-12-18T05:10:57.549Z,41.50
2018-12-18T05:13:23.798Z,41.40
2018-12-18T05:15:51.473Z,41.40
2018-12-18T05:18:17.680Z,42.00
2018-12-18T05:20:43.931Z,41.40
2018-12-18T05:23:10.327Z,41.40
2018-12-18T05:25:36.584Z,41.30
2018-12-18T05:28:02.793Z,41.30
2018-12-18T05:30:29.015Z,41.30
2018-12-18T05:32:55.193Z,41.20
2018-12-18T05:35:22.314Z,41.20
2018-12-18T05:37:50.018Z,41.20
2018-12-18T05:40:16.415Z,41.20
2018-12-18T05:42:42.645Z,41.10
2018-12-18T05:45:08.838Z,41.10
2018-12-18T05:47:35.082Z,41.10
2018-12-18T05:50:01.290Z,41.10
2018-12-18T05:52:27.537Z,41.00
2018-12-18T05:54:53.766Z,41.00
2018-12-18T05:57:21.488Z,41.00
2018-12-18T05:59:47.903Z,41.00
2018-12-18T06:02:14.122Z,40.90
2018-12-18T06:04:40.508Z,40.80
2018-12-18T06:07:06.740Z,40.80
2018-12-18T06:09:32.977Z,40.90
2018-12-18T06:11:59.198Z,40.90
2018-12-18T06:14:25.453Z,40.90
2018-12-18T06:16:51.867Z,40.80
2018-12-18T06:19:19.551Z,40.80
2018-12-18T06:21:45.743Z,40.80
2018-12-18T06:24:11.998Z,40.70
2018-12-18T06:26:38.197Z,40.70
2018-12-18T06:29:04.444Z,40.70
2018-12-18T06:31:30.664Z,40.70
2018-12-18T06:33:57.707Z,40.60
2018-12-18T06:36:23.948Z,40.60
2018-12-18T06:38:50.173Z,40.60
2018-12-18T06:41:16.391Z,40.60
2018-12-18T06:43:42.616Z,40.60
2018-12-18T06:46:08.858Z,40.60
2018-12-18T06:48:36.725Z,40.50
2018-12-18T06:51:03.875Z,40.50
2018-12-18T06:53:30.179Z,40.40
2018-12-18T06:55:56.437Z,40.50
2018-12-18T06:58:22.671Z,40.40
2018-12-18T07:00:49.703Z,40.40
2018-12-18T07:03:15.943Z,40.40
2018-12-18T07:05:42.142Z,40.40
2018-12-18T07:08:08.375Z,40.40
2018-12-18T07:10:34.617Z,40.40
2018-12-18T07:13:00.879Z,40.40
2018-12-18T07:15:27.266Z,40.30
2018-12-18T07:17:53.551Z,40.30
2018-12-18T07:20:20.035Z,40.20
2018-12-18T07:22:46.396Z,40.20
2018-12-18T07:25:12.805Z,40.20
2018-12-18T07:27:38.976Z,40.30
2018-12-18T07:30:05.943Z,40.40
2018-12-18T07:32:32.146Z,40.40
2018-12-18T07:34:59.195Z,40.40
2018-12-18T07:37:25.580Z,40.40
2018-12-18T07:39:51.857Z,40.50
2018-12-18T07:42:18.041Z,40.40
2018-12-18T07:44:44.261Z,40.40
2018-12-18T07:47:10.500Z,40.40
2018-12-18T07:49:36.930Z,40.30
2018-12-18T07:52:03.155Z,40.60
2018-12-18T07:54:29.345Z,40.30
2018-12-18T07:56:55.591Z,40.30
2018-12-18T07:59:21.835Z,40.30
2018-12-18T08:01:48.115Z,40.20
2018-12-18T08:04:14.501Z,40.30
2018-12-18T08:06:40.728Z,40.30
2018-12-18T08:09:07.004Z,40.10
2018-12-18T08:11:33.391Z,40.20
2018-12-18T08:13:59.588Z,40.20
2018-12-18T08:16:25.840Z,40.30
2018-12-18T08:18:52.075Z,40.30
2018-12-18T08:21:18.300Z,40.20
2018-12-18T08:23:44.523Z,40.30
2018-12-18T08:26:10.710Z,40.30
2018-12-18T08:28:37.000Z,40.20
2018-12-18T08:31:03.194Z,40.20
2018-12-18T08:33:29.455Z,40.30
2018-12-18T08:35:57.323Z,40.30
2018-12-18T08:38:23.579Z,40.30
2018-12-18T08:40:49.992Z,40.20
2018-12-18T08:43:16.199Z,40.30
2018-12-18T08:45:42.431Z,40.30
2018-12-18T08:48:08.657Z,40.60
2018-12-18T08:50:34.878Z,40.40
2018-12-18T08:53:01.389Z,40.60
2018-12-18T08:55:27.802Z,40.40
2018-12-18T08:57:54.184Z,40.50
2018-12-18T09:00:20.450Z,40.50
2018-12-18T09:02:46.827Z,40.50
2018-12-18T09:05:13.002Z,40.50
2018-12-18T09:07:40.120Z,40.60
2018-12-18T09:10:06.336Z,40.50
2018-12-18T09:12:32.828Z,40.50
2018-12-18T09:14:59.224Z,40.60
2018-12-18T09:17:27.142Z,40.70
2018-12-18T09:19:53.557Z,40.70
2018-12-18T09:22:19.814Z,40.60
2018-12-18T09:24:46.163Z,40.60
2018-12-18T09:27:12.398Z,40.70
2018-12-18T09:29:40.108Z,40.80
2018-12-18T09:32:06.311Z,40.70
2018-12-18T09:34:32.532Z,40.70
2018-12-18T09:36:58.736Z,40.70
2018-12-18T09:39:24.985Z,40.70
2018-12-18T09:41:51.208Z,40.70
2018-12-18T09:44:17.443Z,40.80
2018-12-18T09:46:43.681Z,40.70
2018-12-18T09:49:09.900Z,40.70
2018-12-18T09:51:36.872Z,40.70
2018-12-18T09:54:03.874Z,40.80
2018-12-18T09:56:30.082Z,40.80
2018-12-18T09:58:56.284Z,40.80
2018-12-18T10:01:22.498Z,40.70
2018-12-18T10:03:48.728Z,40.80
2018-12-18T10:06:14.911Z,40.70
2018-12-18T10:08:41.111Z,40.80
2018-12-18T10:11:07.295Z,40.70
2018-12-18T10:13:33.487Z,40.80
2018-12-18T10:15:59.670Z,40.80
2018-12-18T10:18:25.932Z,40.60
2018-12-18T10:20:52.134Z,40.70
2018-12-18T10:23:18.361Z,40.80
2018-12-18T10:25:44.566Z,40.80
2018-12-18T10:28:10.821Z,40.80
2018-12-18T10:30:37.045Z,40.80
2018-12-18T10:33:03.243Z,40.80
2018-12-18T10:35:30.959Z,40.90
2018-12-18T10:37:57.165Z,40.80
2018-12-18T10:40:23.455Z,40.70
2018-12-18T10:42:49.627Z,40.80
2018-12-18T10:45:15.825Z,40.90
2018-12-18T10:47:42.012Z,40.90
2018-12-18T10:50:08.206Z,40.80
2018-12-18T10:52:34.398Z,40.90
2018-12-18T10:55:00.640Z,40.90
2018-12-18T10:57:26.815Z,41.00
2018-12-18T10:59:53.022Z,41.00
2018-12-18T11:02:19.203Z,41.10
2018-12-18T11:04:45.421Z,41.00
2018-12-18T11:07:11.648Z,41.00
2018-12-18T11:09:37.851Z,41.00
2018-12-18T11:12:04.113Z,40.90
2018-12-18T11:14:31.834Z,40.80
2018-12-18T11:16:58.048Z,40.70
2018-12-18T11:19:24.286Z,40.80
2018-12-18T11:21:50.487Z,40.80
2018-12-18T11:24:16.675Z,40.80
2018-12-18T11:26:42.889Z,40.70
2018-12-18T11:29:09.144Z,40.70
2018-12-18T11:31:35.377Z,40.90
2018-12-18T11:34:01.564Z,40.90
2018-12-18T11:36:27.748Z,40.90
2018-12-18T11:38:53.952Z,41.00
2018-12-18T11:41:20.936Z,40.90
2018-12-18T11:43:47.132Z,40.90
2018-12-18T11:46:13.355Z,40.90
2018-12-18T11:48:39.543Z,40.90
2018-12-18T11:51:05.755Z,40.90
2018-12-18T11:53:32.713Z,41.10
2018-12-18T11:55:58.919Z,41.00
2018-12-18T11:58:25.122Z,41.10
2018-12-18T12:00:51.344Z,41.20
2018-12-18T12:03:17.532Z,41.20
2018-12-18T12:05:43.746Z,41.10
2018-12-18T12:08:09.928Z,41.80
2018-12-18T12:10:36.124Z,41.10
2018-12-18T12:13:02.363Z,41.10
2018-12-18T12:15:28.580Z,41.10
2018-12-18T12:17:54.785Z,41.20
2018-12-18T12:20:21.032Z,41.10
2018-12-18T12:22:47.227Z,41.60
2018-12-18T12:25:13.431Z,41.10
2018-12-18T12:27:39.644Z,41.10
2018-12-18T12:30:05.857Z,41.10
2018-12-18T12:32:32.164Z,41.10
2018-12-18T12:34:58.381Z,41.10
2018-12-18T12:37:24.571Z,41.10
2018-12-18T12:39:50.755Z,41.10
2018-12-18T12:42:16.947Z,41.20
2018-12-18T12:44:43.908Z,41.30
2018-12-18T12:47:10.113Z,41.30
2018-12-18T12:49:36.303Z,41.30
2018-12-18T12:52:02.618Z,41.30
2018-12-18T12:54:28.830Z,41.90
2018-12-18T12:56:55.061Z,41.30
2018-12-18T12:59:21.246Z,41.30
2018-12-18T13:01:47.707Z,41.10
2018-12-18T13:04:13.955Z,41.20
2018-12-18T13:06:40.192Z,41.20
2018-12-18T13:09:06.597Z,41.10
2018-12-18T13:11:33.720Z,41.10
2018-12-18T13:13:59.904Z,41.20
2018-12-18T13:16:26.251Z,41.20
2018-12-18T13:18:52.449Z,41.30
2018-12-18T13:21:18.698Z,41.30
2018-12-18T13:23:44.937Z,41.30
2018-12-18T13:26:11.112Z,42.00
2018-12-18T13:28:38.612Z,41.30
2018-12-18T13:31:05.112Z,41.20
2018-12-18T13:33:31.339Z,41.30
2018-12-18T13:35:57.520Z,41.20
2018-12-18T13:38:23.735Z,41.20
2018-12-18T13:40:50.788Z,41.30
2018-12-18T13:43:17.048Z,41.20
2018-12-18T13:45:43.299Z,41.20
2018-12-18T13:48:09.482Z,41.20
2018-12-18T13:50:35.753Z,41.80
2018-12-18T13:53:01.989Z,41.30
2018-12-18T13:55:28.206Z,41.20
2018-12-18T13:57:54.387Z,41.20
2018-12-18T14:00:20.625Z,41.20
2018-12-18T14:02:47.483Z,41.20
2018-12-18T14:05:13.713Z,41.20
2018-12-18T14:07:40.432Z,41.20
2018-12-18T14:10:07.631Z,41.20
2018-12-18T14:12:33.815Z,41.20
2018-12-18T14:15:00.061Z,41.10
2018-12-18T14:17:26.237Z,41.10
2018-12-18T14:19:52.426Z,41.10
2018-12-18T14:22:19.387Z,41.10
2018-12-18T14:24:45.591Z,41.00
2018-12-18T14:27:11.813Z,41.00
2018-12-18T14:29:37.987Z,41.00
2018-12-18T14:32:04.192Z,41.00
2018-12-18T14:34:31.171Z,41.00
2018-12-18T14:36:57.577Z,41.00
2018-12-18T14:39:25.675Z,41.10
2018-12-18T14:41:51.872Z,41.00
2018-12-18T14:44:18.101Z,41.00
2018-12-18T14:46:44.325Z,41.00
2018-12-18T14:49:10.547Z,41.00
2018-12-18T14:51:36.755Z,40.90
2018-12-18T14:54:04.470Z,40.90
2018-12-18T14:56:30.687Z,40.80
2018-12-18T14:58:56.891Z,40.90
2018-12-18T15:01:23.104Z,40.90
2018-12-18T15:03:50.206Z,40.80
2018-12-18T15:06:16.628Z,40.80
2018-12-18T15:08:42.810Z,40.80
2018-12-18T15:11:09.010Z,40.80
2018-12-18T15:13:35.275Z,40.70
2018-12-18T15:16:02.156Z,40.80
2018-12-18T15:18:28.359Z,40.60
2018-12-18T15:20:54.574Z,40.70
2018-12-18T15:23:20.768Z,40.70
2018-12-18T15:25:47.026Z,40.70
2018-12-18T15:28:13.286Z,40.60
2018-12-18T15:30:39.856Z,40.70
2018-12-18T15:33:06.060Z,40.60
2018-12-18T15:35:32.396Z,40.50
2018-12-18T15:37:58.604Z,40.60
2018-12-18T15:40:24.819Z,40.60
2018-12-18T15:42:51.007Z,40.50
2018-12-18T15:45:17.289Z,40.50
2018-12-18T15:47:43.506Z,40.50
2018-12-18T15:50:09.790Z,40.40
2018-12-18T15:52:36.185Z,40.40
2018-12-18T15:55:02.588Z,40.40
2018-12-18T15:57:29.050Z,40.40
2018-12-18T15:59:55.279Z,40.20
2018-12-18T16:02:24.273Z,40.30
2018-12-18T16:04:47.939Z,40.20
2018-12-18T16:07:16.197Z,40.20
2018-12-18T16:09:40.551Z,40.20
2018-12-18T16:12:06.744Z,40.00
2018-12-18T16:14:33.682Z,40.10
2018-12-18T16:16:59.903Z,40.00
2018-12-18T16:19:26.122Z,40.00
2018-12-18T16:21:52.527Z,40.00
2018-12-18T16:24:18.790Z,40.00
2018-12-18T16:26:44.986Z,39.90
2018-12-18T16:29:11.219Z,39.90
2018-12-18T16:31:37.436Z,39.90
2018-12-18T16:34:03.674Z,39.90
2018-12-18T16:36:29.872Z,39.80
2018-12-18T16:38:56.125Z,39.70
2018-12-18T16:41:22.389Z,39.80
2018-12-18T16:43:48.787Z,39.70
2018-12-18T16:46:15.032Z,39.80
2018-12-18T16:48:41.283Z,39.80
2018-12-18T16:51:07.684Z,39.60
2018-12-18T16:53:36.174Z,39.60
2018-12-18T16:56:02.601Z,39.50
2018-12-18T16:58:29.034Z,39.60
2018-12-18T17:00:55.443Z,39.50
2018-12-18T17:03:21.721Z,39.50
2018-12-18T17:05:48.103Z,39.40
2018-12-18T17:08:14.335Z,39.40
2018-12-18T17:10:42.207Z,39.30
2018-12-18T17:13:08.430Z,39.30
2018-12-18T17:15:34.655Z,39.30
2018-12-18T17:18:00.911Z,39.30
2018-12-18T17:20:27.306Z,39.20
2018-12-18T17:22:53.534Z,39.30
2018-12-18T17:25:19.814Z,39.10
2018-12-18T17:27:46.242Z,39.20
2018-12-18T17:30:12.667Z,39.20
2018-12-18T17:32:39.086Z,39.10
2018-12-18T17:35:05.326Z,39.00
2018-12-18T17:37:36.138Z,39.10
2018-12-18T17:39:58.610Z,39.00
2018-12-18T17:42:24.825Z,39.10
2018-12-18T17:44:52.687Z,38.90
2018-12-18T17:47:20.546Z,39.00
2018-12-18T17:49:46.783Z,39.00
2018-12-18T17:52:12.999Z,39.00
2018-12-18T17:54:39.211Z,38.90
2018-12-18T17:57:05.711Z,38.90
2018-12-18T17:59:32.103Z,38.80
2018-12-18T18:01:58.548Z,38.90
2018-12-18T18:04:24.963Z,38.70
2018-12-18T18:06:51.187Z,38.60
2018-12-18T18:09:17.425Z,38.60
2018-12-18T18:11:43.835Z,38.60
2018-12-18T18:14:10.080Z,38.60
2018-12-18T18:16:36.355Z,38.50
2018-12-18T18:19:02.975Z,38.40
2018-12-18T18:21:29.384Z,38.50
2018-12-18T18:23:55.599Z,38.40
2018-12-18T18:26:23.500Z,38.40
2018-12-18T18:28:49.943Z,38.30
2018-12-18T18:31:16.337Z,38.20
2018-12-18T18:33:42.792Z,38.20
2018-12-18T18:36:09.232Z,38.10
2018-12-18T18:38:35.644Z,38.10
2018-12-18T18:41:01.886Z,38.00
2018-12-18T18:43:28.099Z,38.00
2018-12-18T18:45:55.860Z,37.90
2018-12-18T18:48:22.063Z,37.90
2018-12-18T18:50:48.284Z,37.80
2018-12-18T18:53:14.464Z,37.80
2018-12-18T18:55:40.683Z,37.70
2018-12-18T18:58:06.935Z,37.70
2018-12-18T19:00:33.119Z,37.70
2018-12-18T19:02:59.328Z,37.70
2018-12-18T19:05:25.547Z,37.60
2018-12-18T19:07:56.507Z,37.50
2018-12-18T19:10:18.296Z,37.50
2018-12-18T19:12:45.405Z,37.50
2018-12-18T19:15:11.592Z,37.50
2018-12-18T19:17:38.106Z,37.40
2018-12-18T19:20:04.331Z,37.30
2018-12-18T19:22:30.578Z,37.30
2018-12-18T19:24:56.808Z,37.20
2018-12-18T19:27:23.058Z,37.20
2018-12-18T19:29:50.027Z,37.20
2018-12-18T19:32:16.275Z,37.10
2018-12-18T19:34:42.727Z,37.00
2018-12-18T19:37:08.925Z,37.00
2018-12-18T19:39:35.143Z,36.90
2018-12-18T19:42:02.856Z,36.90
2018-12-18T19:44:29.040Z,37.50
2018-12-18T19:46:55.250Z,36.80
2018-12-18T19:49:22.763Z,36.80
2018-12-18T19:51:48.967Z,36.70
2018-12-18T19:54:15.166Z,36.60
2018-12-18T19:56:41.444Z,36.60
2018-12-18T19:59:14.111Z,36.60
2018-12-18T20:01:41.106Z,36.50
2018-12-18T20:04:07.346Z,36.40
2018-12-18T20:06:33.749Z,36.40
2018-12-18T20:09:00.007Z,36.40
2018-12-18T20:11:26.203Z,36.30
2018-12-18T20:13:52.432Z,36.30
2018-12-18T20:16:18.616Z,36.30
2018-12-18T20:18:44.823Z,36.20
2018-12-18T20:21:11.014Z,36.10
2018-12-18T20:23:37.555Z,36.10
2018-12-18T20:26:03.802Z,36.10
2018-12-18T20:28:29.991Z,36.10
2018-12-18T20:30:56.183Z,36.00
2018-12-18T20:33:22.383Z,36.00
2018-12-18T20:35:48.670Z,35.90
2018-12-18T20:38:16.926Z,35.90
2018-12-18T20:40:41.153Z,35.80
2018-12-18T20:43:07.375Z,35.70
2018-12-18T20:45:33.598Z,35.70
2018-12-18T20:47:59.828Z,35.70
2018-12-18T20:50:26.049Z,35.70
2018-12-18T20:52:52.236Z,35.50
2018-12-18T20:55:18.455Z,35.50
2018-12-18T20:57:44.662Z,35.50
2018-12-18T21:00:11.571Z,35.50
2018-12-18T21:02:37.779Z,35.40
2018-12-18T21:05:04.664Z,35.40
2018-12-18T21:07:30.886Z,35.40
2018-12-18T21:09:57.087Z,35.30
2018-12-18T21:12:23.312Z,35.30
2018-12-18T21:14:49.488Z,35.30
2018-12-18T21:17:15.738Z,35.30
2018-12-18T21:19:42.014Z,35.30
2018-12-18T21:22:08.260Z,35.20
2018-12-18T21:24:34.434Z,35.20
2018-12-18T21:27:00.636Z,35.20
2018-12-18T21:29:26.890Z,35.00
2018-12-18T21:31:53.087Z,35.00
2018-12-18T21:34:19.276Z,35.00
2018-12-18T21:36:46.223Z,35.00
2018-12-18T21:39:12.443Z,35.00
2018-12-18T21:41:38.624Z,34.90
2018-12-18T21:44:04.807Z,34.90
2018-12-18T21:46:31.835Z,34.90
2018-12-18T21:48:58.781Z,34.90
2018-12-18T21:51:25.230Z,34.90
2018-12-18T21:53:51.430Z,34.80
2018-12-18T21:56:17.619Z,34.80
2018-12-18T21:58:43.860Z,34.80
2018-12-18T22:01:10.063Z,35.40
2018-12-18T22:03:36.275Z,34.70
2018-12-18T22:06:02.444Z,34.70
2018-12-18T22:08:28.659Z,34.70
2018-12-18T22:10:54.852Z,34.70
2018-12-18T22:13:21.065Z,34.70
2018-12-18T22:15:47.235Z,34.60
2018-12-18T22:18:13.459Z,34.60
2018-12-18T22:20:39.721Z,34.60
2018-12-18T22:23:05.948Z,34.60
2018-12-18T22:25:32.172Z,34.60
2018-12-18T22:27:58.374Z,34.50
2018-12-18T22:30:24.552Z,34.50
2018-12-18T22:32:50.723Z,34.50
2018-12-18T22:35:17.134Z,34.60
2018-12-18T22:37:43.337Z,34.40
2018-12-18T22:40:09.552Z,34.50
2018-12-18T22:42:35.756Z,34.30
2018-12-18T22:45:02.623Z,34.40
2018-12-18T22:47:28.811Z,34.40
2018-12-18T22:49:55.102Z,34.40
2018-12-18T22:52:21.283Z,34.40
2018-12-18T22:54:47.840Z,34.30
2018-12-18T22:57:14.039Z,34.30
2018-12-18T22:59:40.239Z,34.20
2018-12-18T23:02:07.017Z,34.20
2018-12-18T23:04:33.225Z,34.20
2018-12-18T23:06:59.411Z,34.20
2018-12-18T23:09:26.372Z,34.10
2018-12-18T23:11:52.610Z,34.00
2018-12-18T23:14:18.804Z,34.00
2018-12-18T23:16:46.499Z,34.10
2018-12-18T23:19:12.723Z,34.10
2018-12-18T23:21:38.920Z,34.10
2018-12-18T23:24:05.111Z,33.90
2018-12-18T23:26:31.333Z,33.90
2018-12-18T23:28:57.516Z,34.00
2018-12-18T23:31:24.476Z,34.00
2018-12-18T23:33:50.680Z,34.00
2018-12-18T23:36:17.266Z,33.90
2018-12-18T23:38:43.469Z,33.60
2018-12-18T23:41:09.750Z,33.70
2018-12-18T23:43:35.947Z,33.80
2018-12-18T23:46:02.187Z,33.90
2018-12-18T23:48:28.409Z,33.80
2018-12-18T23:50:54.615Z,33.60
2018-12-18T23:53:20.823Z,33.60
2018-12-18T23:55:47.803Z,33.80
2018-12-18T23:58:13.995Z,33.70
